createdAt,value
2023-05-06T00:00:31.984Z,967.1500
2023-05-06T00:01:34.225Z,967.1500
2023-05-06T00:02:34.618Z,967.1500
2023-05-06T00:03:36.732Z,967.1500
2023-05-06T00:04:38.893Z,967.1300
2023-05-06T00:05:41.077Z,967.1100
2023-05-06T00:06:43.300Z,967.1100
2023-05-06T00:07:45.553Z,967.0900
2023-05-06T00:08:47.644Z,967.0900
2023-05-06T00:09:49.838Z,967.1100
2023-05-06T00:10:52.030Z,967.1300
2023-05-06T00:11:54.222Z,967.1300
2023-05-06T00:12:56.518Z,967.1500
2023-05-06T00:13:58.698Z,967.1300
2023-05-06T00:15:00.941Z,967.1500
2023-05-06T00:16:01.056Z,967.1900
2023-05-06T00:17:03.252Z,967.1700
2023-05-06T00:19:31.623Z,967.1300
2023-05-06T00:20:33.449Z,967.0900
2023-05-06T00:21:34.466Z,967.0900
2023-05-06T00:22:35.612Z,967.0700
2023-05-06T00:23:37.716Z,967.0900
2023-05-06T00:24:39.931Z,967.0700
2023-05-06T00:25:42.078Z,967.0900
2023-05-06T00:26:44.269Z,967.0900
2023-05-06T00:27:46.479Z,967.0700
2023-05-06T00:28:48.673Z,967.0900
2023-05-06T00:29:50.934Z,967.0700
2023-05-06T00:30:53.126Z,967.0700
2023-05-06T00:31:55.391Z,967.0700
2023-05-06T00:32:55.455Z,967.0700
2023-05-06T00:33:57.653Z,966.9500
2023-05-06T00:35:00.029Z,966.9300
2023-05-06T00:36:02.041Z,966.9300
2023-05-06T00:37:04.211Z,966.9100
2023-05-06T00:38:06.373Z,966.9100
2023-05-06T00:39:08.516Z,966.9100
2023-05-06T00:40:10.666Z,966.9300
2023-05-06T00:41:12.776Z,966.8900
2023-05-06T00:42:14.902Z,966.9100
2023-05-06T00:43:17.024Z,966.9300
2023-05-06T00:44:19.231Z,966.9700
2023-05-06T00:45:21.548Z,966.9300
2023-05-06T00:46:23.716Z,966.9300
2023-05-06T00:47:25.884Z,966.9500
2023-05-06T00:48:28.124Z,966.9500
2023-05-06T00:49:30.310Z,966.9500
2023-05-06T00:50:32.682Z,966.9700
2023-05-06T00:51:34.655Z,966.9500
2023-05-06T00:52:36.864Z,966.9500
2023-05-06T00:53:39.002Z,966.9700
2023-05-06T00:54:41.163Z,966.9500
2023-05-06T00:55:43.373Z,966.9300
2023-05-06T00:56:43.370Z,966.9700
2023-05-06T00:57:45.535Z,966.9700
2023-05-06T00:58:47.708Z,966.9700
2023-05-06T00:59:49.832Z,967.0500
2023-05-06T01:00:53.584Z,966.9500
2023-05-06T01:01:54.185Z,966.9500
2023-05-06T01:02:56.402Z,966.9500
2023-05-06T01:03:58.745Z,966.9700
2023-05-06T01:05:00.747Z,966.9500
2023-05-06T01:06:03.141Z,966.9500
2023-05-06T01:07:05.173Z,966.9500
2023-05-06T01:08:07.401Z,966.9500
2023-05-06T01:09:09.606Z,966.9100
2023-05-06T01:10:11.811Z,966.8900
2023-05-06T01:11:15.794Z,966.8700
2023-05-06T01:12:16.235Z,966.8700
2023-05-06T01:13:18.528Z,966.8900
2023-05-06T01:14:20.688Z,966.9100
2023-05-06T01:15:20.743Z,966.8500
2023-05-06T01:16:23.016Z,966.8500
2023-05-06T01:17:25.257Z,966.8500
2023-05-06T01:18:27.362Z,966.8500
2023-05-06T01:19:29.589Z,966.8700
2023-05-06T01:20:31.835Z,966.8500
2023-05-06T01:21:34.132Z,966.8700
2023-05-06T01:22:36.202Z,966.8700
2023-05-06T01:23:38.442Z,966.8700
2023-05-06T01:24:40.681Z,966.8900
2023-05-06T01:25:42.917Z,966.9100
2023-05-06T01:26:45.135Z,966.9100
2023-05-06T01:27:47.329Z,966.8900
2023-05-06T01:28:47.406Z,966.8900
2023-05-06T01:29:49.647Z,966.8900
2023-05-06T01:30:51.938Z,966.8900
2023-05-06T01:31:54.245Z,966.8900
2023-05-06T01:32:56.403Z,966.8500
2023-05-06T01:33:58.637Z,966.8700
2023-05-06T01:35:00.850Z,966.8500
2023-05-06T01:36:03.107Z,966.8900
2023-05-06T01:37:05.485Z,966.8900
2023-05-06T01:38:07.633Z,966.8700
2023-05-06T01:39:07.747Z,966.9100
2023-05-06T01:40:10.011Z,966.9100
2023-05-06T01:41:12.269Z,966.9300
2023-05-06T01:42:14.552Z,966.9100
2023-05-06T01:43:16.736Z,966.8900
2023-05-06T01:44:18.978Z,966.8700
2023-05-06T01:45:21.187Z,966.8700
2023-05-06T01:46:23.429Z,966.8700
2023-05-06T01:47:25.763Z,966.8300
2023-05-06T01:48:27.851Z,966.8300
2023-05-06T01:49:30.067Z,966.8700
2023-05-06T01:50:30.140Z,966.8500
2023-05-06T01:51:32.367Z,966.8500
2023-05-06T01:52:34.748Z,966.8500
2023-05-06T01:53:36.845Z,966.8500
2023-05-06T01:54:39.131Z,966.8700
2023-05-06T01:55:41.364Z,966.8700
2023-05-06T01:56:43.622Z,966.8700
2023-05-06T01:57:45.945Z,966.8700
2023-05-06T01:58:48.124Z,966.8700
2023-05-06T01:59:49.243Z,966.8500
2023-05-06T02:00:51.464Z,966.8900
2023-05-06T02:01:53.745Z,966.8500
2023-05-06T02:02:56.166Z,966.8500
2023-05-06T02:03:58.267Z,966.8300
2023-05-06T02:05:00.406Z,966.8300
2023-05-06T02:06:02.631Z,966.8300
2023-05-06T02:07:04.853Z,966.8000
2023-05-06T02:08:05.261Z,966.8200
2023-05-06T02:09:07.265Z,966.8200
2023-05-06T02:10:09.390Z,966.8300
2023-05-06T02:11:11.609Z,966.8200
2023-05-06T02:12:13.797Z,966.8300
2023-05-06T02:13:14.067Z,966.8300
2023-05-06T02:14:16.153Z,966.8300
2023-05-06T02:15:18.398Z,966.8200
2023-05-06T02:16:20.683Z,966.8200
2023-05-06T02:17:22.870Z,966.8000
2023-05-06T02:18:25.127Z,966.7800
2023-05-06T02:19:27.347Z,966.8000
2023-05-06T02:20:29.603Z,966.8000
2023-05-06T02:21:31.823Z,966.7800
2023-05-06T02:22:34.064Z,966.8000
2023-05-06T02:23:36.336Z,966.8200
2023-05-06T02:24:38.513Z,966.8300
2023-05-06T02:25:40.780Z,966.8200
2023-05-06T02:26:43.006Z,966.8200
2023-05-06T02:27:45.219Z,966.8000
2023-05-06T02:28:47.574Z,966.8200
2023-05-06T02:29:49.704Z,966.8200
2023-05-06T02:30:51.964Z,966.8200
2023-05-06T02:31:54.308Z,966.8200
2023-05-06T02:32:56.471Z,966.8300
2023-05-06T02:33:56.647Z,966.8300
2023-05-06T02:34:58.781Z,966.8300
2023-05-06T02:36:01.024Z,966.8300
2023-05-06T02:37:03.256Z,966.8500
2023-05-06T02:38:05.422Z,966.8500
2023-05-06T02:39:05.604Z,966.8300
2023-05-06T02:40:07.662Z,966.8300
2023-05-06T02:41:09.824Z,966.8200
2023-05-06T02:42:12.088Z,966.8000
2023-05-06T02:43:14.188Z,966.7600
2023-05-06T02:44:16.380Z,966.7400
2023-05-06T02:45:16.398Z,966.7200
2023-05-06T02:46:18.695Z,966.7000
2023-05-06T02:47:20.879Z,966.7000
2023-05-06T02:48:23.038Z,966.7000
2023-05-06T02:49:25.365Z,966.6800
2023-05-06T02:50:27.405Z,966.6400
2023-05-06T02:51:29.568Z,966.6400
2023-05-06T02:52:31.742Z,966.6600
2023-05-06T02:53:33.982Z,966.6400
2023-05-06T02:54:36.388Z,966.6400
2023-05-06T02:55:36.266Z,966.6400
2023-05-06T02:56:38.526Z,966.6000
2023-05-06T02:57:40.716Z,966.6000
2023-05-06T02:58:42.923Z,966.6200
2023-05-06T02:59:45.222Z,966.6200
2023-05-06T03:00:45.250Z,966.6200
2023-05-06T03:01:47.461Z,966.6200
2023-05-06T03:02:49.735Z,966.6200
2023-05-06T03:03:51.897Z,966.6200
2023-05-06T03:04:54.100Z,966.6000
2023-05-06T03:05:54.154Z,966.6200
2023-05-06T03:06:56.379Z,966.6200
2023-05-06T03:07:58.613Z,966.6000
2023-05-06T03:09:00.822Z,966.6000
2023-05-06T03:10:03.169Z,966.6000
2023-05-06T03:11:03.072Z,966.6000
2023-05-06T03:12:05.329Z,966.6200
2023-05-06T03:13:07.653Z,966.6000
2023-05-06T03:14:09.840Z,966.6200
2023-05-06T03:15:12.504Z,966.6200
2023-05-06T03:16:14.401Z,966.6200
2023-05-06T03:17:16.516Z,966.6000
2023-05-06T03:18:18.742Z,966.6000
2023-05-06T03:19:20.936Z,966.6200
2023-05-06T03:20:21.117Z,966.6000
2023-05-06T03:21:23.250Z,966.5800
2023-05-06T03:22:25.436Z,966.6000
2023-05-06T03:23:27.655Z,966.6200
2023-05-06T03:24:29.869Z,966.6000
2023-05-06T03:25:30.245Z,966.6200
2023-05-06T03:26:32.166Z,966.6200
2023-05-06T03:27:34.364Z,966.6200
2023-05-06T03:28:36.604Z,966.6400
2023-05-06T03:29:38.830Z,966.6200
2023-05-06T03:30:41.070Z,966.6400
2023-05-06T03:31:43.316Z,966.6400
2023-05-06T03:32:45.530Z,966.6400
2023-05-06T03:33:47.703Z,966.6400
2023-05-06T03:34:47.772Z,966.6200
2023-05-06T03:35:50.004Z,966.6200
2023-05-06T03:36:52.141Z,966.6200
2023-05-06T03:37:54.350Z,966.6200
2023-05-06T03:38:56.510Z,966.6000
2023-05-06T03:39:58.702Z,966.6000
2023-05-06T03:41:01.069Z,966.6000
2023-05-06T03:42:03.058Z,966.6200
2023-05-06T03:43:05.240Z,966.6400
2023-05-06T03:44:07.484Z,966.6600
2023-05-06T03:45:09.890Z,966.6600
2023-05-06T03:46:12.045Z,966.6800
2023-05-06T03:47:14.122Z,966.6400
2023-05-06T03:48:16.367Z,966.6000
2023-05-06T03:49:18.634Z,966.6200
2023-05-06T03:50:20.894Z,966.6400
2023-05-06T03:51:23.273Z,966.6200
2023-05-06T03:52:25.364Z,966.6200
2023-05-06T03:53:27.578Z,966.6200
2023-05-06T03:54:29.840Z,966.6200
2023-05-06T03:55:32.071Z,966.6400
2023-05-06T03:56:34.560Z,966.6400
2023-05-06T03:57:40.461Z,966.6000
2023-05-06T03:58:43.126Z,966.6000
2023-05-06T03:59:45.285Z,966.5800
2023-05-06T04:00:47.471Z,966.5600
2023-05-06T04:01:47.720Z,966.5600
2023-05-06T04:02:49.769Z,966.5400
2023-05-06T04:03:52.005Z,966.5400
2023-05-06T04:04:54.045Z,966.5600
2023-05-06T04:05:56.258Z,966.5800
2023-05-06T04:06:58.513Z,966.6000
2023-05-06T04:08:00.720Z,966.6200
2023-05-06T04:09:02.963Z,966.6200
2023-05-06T04:10:05.188Z,966.6600
2023-05-06T04:11:07.405Z,966.6600
2023-05-06T04:12:09.725Z,966.6600
2023-05-06T04:13:11.864Z,966.6400
2023-05-06T04:14:14.062Z,966.6200
2023-05-06T04:15:14.142Z,966.6200
2023-05-06T04:16:16.394Z,966.6200
2023-05-06T04:17:18.680Z,966.6000
2023-05-06T04:18:22.899Z,966.6400
2023-05-06T04:18:48.650Z,966.6400
2023-05-06T04:19:50.849Z,966.6200
2023-05-06T04:20:53.117Z,966.6400
2023-05-06T04:21:55.338Z,966.6600
2023-05-06T04:22:57.678Z,966.6600
2023-05-06T04:23:59.788Z,966.6600
2023-05-06T04:25:02.022Z,966.7000
2023-05-06T04:26:02.097Z,966.6800
2023-05-06T04:27:04.333Z,966.7200
2023-05-06T04:28:06.752Z,966.7200
2023-05-06T04:29:08.774Z,966.7400
2023-05-06T04:30:10.924Z,966.7400
2023-05-06T04:31:13.082Z,966.7600
2023-05-06T04:32:17.311Z,966.7600
2023-05-06T04:33:17.363Z,966.7600
2023-05-06T04:34:19.482Z,966.8000
2023-05-06T04:35:21.683Z,966.8000
2023-05-06T04:36:23.815Z,966.8300
2023-05-06T04:37:28.078Z,966.8300
2023-05-06T04:38:28.146Z,966.8500
2023-05-06T04:39:32.284Z,966.8500
2023-05-06T04:40:34.389Z,966.8500
2023-05-06T04:41:36.518Z,966.8200
2023-05-06T04:42:34.350Z,966.8200
2023-05-06T04:43:36.730Z,966.8200
2023-05-06T04:44:38.687Z,966.8000
2023-05-06T04:45:40.828Z,966.8000
2023-05-06T04:46:42.936Z,966.7800
2023-05-06T04:47:45.090Z,966.7600
2023-05-06T04:48:47.378Z,966.7600
2023-05-06T04:49:49.451Z,966.7600
2023-05-06T04:50:51.579Z,966.7400
2023-05-06T04:51:53.708Z,966.7800
2023-05-06T04:52:58.026Z,966.8200
2023-05-06T04:53:58.202Z,966.8000
2023-05-06T04:55:00.248Z,966.8300
2023-05-06T04:56:02.363Z,966.8700
2023-05-06T04:57:04.534Z,966.8700
2023-05-06T04:58:06.677Z,966.8700
2023-05-06T04:59:09.001Z,966.8900
2023-05-06T05:00:11.265Z,966.8500
2023-05-06T05:01:13.355Z,966.8700
2023-05-06T05:02:15.448Z,966.8500
2023-05-06T05:03:17.681Z,966.8900
2023-05-06T05:04:19.867Z,966.8900
2023-05-06T05:05:21.953Z,966.8700
2023-05-06T05:06:24.180Z,966.8900
2023-05-06T05:07:26.408Z,966.8900
2023-05-06T05:08:28.653Z,966.8700
2023-05-06T05:09:31.004Z,966.8700
2023-05-06T05:10:30.982Z,966.8300
2023-05-06T05:11:33.187Z,966.8500
2023-05-06T05:12:35.438Z,966.8500
2023-05-06T05:13:37.658Z,966.8300
2023-05-06T05:14:39.989Z,966.8500
2023-05-06T05:15:42.099Z,966.8700
2023-05-06T05:16:44.364Z,966.8900
2023-05-06T05:17:46.624Z,966.9100
2023-05-06T05:18:48.839Z,966.9100
2023-05-06T05:19:51.108Z,966.9300
2023-05-06T05:20:53.372Z,966.9100
2023-05-06T05:21:53.516Z,966.9100
2023-05-06T05:22:55.796Z,966.9500
2023-05-06T05:23:58.088Z,966.9100
2023-05-06T05:25:00.587Z,966.9500
2023-05-06T05:26:02.648Z,966.9500
2023-05-06T05:27:04.908Z,966.9500
2023-05-06T05:28:05.065Z,966.9700
2023-05-06T05:29:07.412Z,966.9500
2023-05-06T05:30:09.859Z,966.9500
2023-05-06T05:31:12.017Z,966.9300
2023-05-06T05:32:14.320Z,966.9500
2023-05-06T05:33:16.758Z,966.9700
2023-05-06T05:34:18.948Z,966.9100
2023-05-06T05:35:19.182Z,966.9300
2023-05-06T05:37:47.490Z,966.9300
2023-05-06T05:38:49.727Z,966.9700
2023-05-06T05:39:52.044Z,966.9700
2023-05-06T05:40:54.450Z,967.0900
2023-05-06T05:41:54.447Z,967.1100
2023-05-06T05:42:56.668Z,967.1300
2023-05-06T05:43:58.906Z,967.1300
2023-05-06T05:45:01.134Z,967.0900
2023-05-06T05:46:03.520Z,967.1300
2023-05-06T05:47:05.578Z,967.1300
2023-05-06T05:48:07.812Z,967.1100
2023-05-06T05:49:10.016Z,967.1500
2023-05-06T05:50:12.219Z,967.1700
2023-05-06T05:51:14.545Z,967.1700
2023-05-06T05:52:16.641Z,967.1500
2023-05-06T05:53:18.839Z,967.1500
2023-05-06T05:54:21.067Z,967.1500
2023-05-06T05:55:23.334Z,967.1300
2023-05-06T05:56:25.678Z,967.1100
2023-05-06T05:57:27.745Z,967.1100
2023-05-06T05:58:29.985Z,967.1100
2023-05-06T05:59:32.166Z,967.1100
2023-05-06T06:00:34.383Z,967.0700
2023-05-06T06:01:36.923Z,967.0700
2023-05-06T06:02:38.870Z,966.9700
2023-05-06T06:03:39.076Z,967.0500
2023-05-06T06:04:41.232Z,966.9700
2023-05-06T06:05:43.354Z,967.0500
2023-05-06T06:06:45.542Z,967.0500
2023-05-06T06:07:47.742Z,967.0700
2023-05-06T06:08:49.934Z,967.1100
2023-05-06T06:09:52.148Z,967.1300
2023-05-06T06:10:54.357Z,967.1300
2023-05-06T06:11:56.691Z,967.1300
2023-05-06T06:12:58.842Z,967.1100
2023-05-06T06:14:00.982Z,967.0900
2023-05-06T06:15:03.188Z,967.1100
2023-05-06T06:16:05.468Z,967.0900
2023-05-06T06:17:07.694Z,967.0500
2023-05-06T06:18:07.721Z,967.0500
2023-05-06T06:19:09.898Z,966.9300
2023-05-06T06:20:12.120Z,966.9100
2023-05-06T06:21:14.339Z,966.9300
2023-05-06T06:22:16.661Z,966.9300
2023-05-06T06:23:18.709Z,966.9100
2023-05-06T06:24:20.841Z,966.8900
2023-05-06T06:25:22.983Z,966.9100
2023-05-06T06:26:25.100Z,966.8900
2023-05-06T06:27:27.330Z,966.8500
2023-05-06T06:28:29.303Z,966.8700
2023-05-06T06:29:31.416Z,966.8900
2023-05-06T06:30:33.541Z,966.8700
2023-05-06T06:31:33.621Z,966.9100
2023-05-06T06:32:36.015Z,966.9500
2023-05-06T06:33:38.100Z,966.9700
2023-05-06T06:34:40.319Z,967.0500
2023-05-06T06:35:42.568Z,967.0700
2023-05-06T06:36:44.792Z,967.0900
2023-05-06T06:37:44.902Z,967.0900
2023-05-06T06:38:47.115Z,967.1100
2023-05-06T06:39:49.377Z,967.1100
2023-05-06T06:40:51.576Z,967.1300
2023-05-06T06:41:53.835Z,967.1500
2023-05-06T06:42:56.210Z,967.1700
2023-05-06T06:43:58.383Z,967.1500
2023-05-06T06:45:00.646Z,967.1500
2023-05-06T06:46:02.987Z,967.1300
2023-05-06T06:47:05.151Z,967.1300
2023-05-06T06:48:07.663Z,967.1500
2023-05-06T06:49:09.686Z,967.1300
2023-05-06T06:50:11.981Z,967.1100
2023-05-06T06:51:14.251Z,967.1100
2023-05-06T06:52:16.529Z,967.1100
2023-05-06T06:53:18.843Z,967.0700
2023-05-06T06:54:21.071Z,967.0700
2023-05-06T06:55:21.172Z,967.0500
2023-05-06T06:56:23.405Z,966.9700
2023-05-06T06:57:25.653Z,966.9700
2023-05-06T06:58:28.687Z,966.9500
2023-05-06T06:59:30.143Z,967.0500
2023-05-06T07:00:32.423Z,966.9700
2023-05-06T07:01:34.700Z,966.9700
2023-05-06T07:02:36.998Z,966.9700
2023-05-06T07:03:39.452Z,966.9700
2023-05-06T07:04:39.424Z,966.9700
2023-05-06T07:05:41.639Z,966.9700
2023-05-06T07:06:43.919Z,967.0700
2023-05-06T07:07:46.161Z,967.0500
2023-05-06T07:08:48.423Z,967.0500
2023-05-06T07:09:50.544Z,967.0700
2023-05-06T07:10:52.775Z,966.9700
2023-05-06T07:11:54.938Z,967.0500
2023-05-06T07:12:57.175Z,966.9500
2023-05-06T07:13:59.384Z,966.9500
2023-05-06T07:15:01.587Z,966.9500
2023-05-06T07:16:03.716Z,966.9700
2023-05-06T07:17:05.969Z,966.9700
2023-05-06T07:18:06.067Z,966.9700
2023-05-06T07:19:08.373Z,966.9300
2023-05-06T07:20:10.390Z,966.9500
2023-05-06T07:21:12.613Z,966.9300
2023-05-06T07:22:14.823Z,966.9300
2023-05-06T07:23:17.026Z,966.9500
2023-05-06T07:24:19.401Z,966.9500
2023-05-06T07:25:21.409Z,966.9700
2023-05-06T07:27:53.844Z,967.0500
2023-05-06T07:28:55.904Z,967.0500
2023-05-06T07:29:58.148Z,966.9500
2023-05-06T07:31:00.243Z,966.9300
2023-05-06T07:32:02.365Z,966.9300
2023-05-06T07:33:04.625Z,966.9500
2023-05-06T07:34:06.772Z,966.9500
2023-05-06T07:35:07.100Z,967.0500
2023-05-06T07:36:09.028Z,967.0500
2023-05-06T07:37:11.286Z,967.0700
2023-05-06T07:38:13.506Z,967.0700
2023-05-06T07:39:15.753Z,967.0900
2023-05-06T07:40:18.064Z,967.0900
2023-05-06T07:41:20.150Z,967.0700
2023-05-06T07:42:22.299Z,967.1100
2023-05-06T07:43:24.494Z,967.1100
2023-05-06T07:44:24.555Z,967.0900
2023-05-06T07:45:26.784Z,967.1100
2023-05-06T07:46:29.019Z,967.0900
2023-05-06T07:47:31.380Z,967.1100
2023-05-06T07:48:33.447Z,967.0900
2023-05-06T07:49:35.674Z,967.1100
2023-05-06T07:50:38.059Z,967.1300
2023-05-06T07:51:40.110Z,967.1100
2023-05-06T07:52:42.341Z,967.1100
2023-05-06T07:53:44.593Z,967.1100
2023-05-06T07:54:46.823Z,967.0700
2023-05-06T07:55:49.074Z,967.0700
2023-05-06T07:56:51.169Z,967.0900
2023-05-06T07:57:53.348Z,967.0700
2023-05-06T07:58:53.400Z,967.0500
2023-05-06T07:59:55.611Z,967.0500
2023-05-06T08:00:56.785Z,966.9700
2023-05-06T08:01:58.868Z,966.9700
2023-05-06T08:03:01.181Z,967.0500
2023-05-06T08:04:01.243Z,967.0500
2023-05-06T08:05:03.253Z,967.0900
2023-05-06T08:06:05.527Z,967.1100
2023-05-06T08:07:07.578Z,967.1500
2023-05-06T08:08:09.750Z,967.1500
2023-05-06T08:09:14.868Z,967.1300
2023-05-06T08:10:14.104Z,967.1500
2023-05-06T08:11:18.108Z,967.1500
2023-05-06T08:12:18.486Z,967.1300
2023-05-06T08:13:20.737Z,967.1100
2023-05-06T08:14:22.860Z,967.1500
2023-05-06T08:15:25.060Z,967.1300
2023-05-06T08:16:27.276Z,967.1500
2023-05-06T08:17:29.419Z,967.1300
2023-05-06T08:18:31.619Z,967.1500
2023-05-06T08:19:33.785Z,967.1300
2023-05-06T08:20:33.884Z,967.1300
2023-05-06T08:21:36.142Z,967.1100
2023-05-06T08:22:38.264Z,967.0900
2023-05-06T08:23:40.441Z,967.1100
2023-05-06T08:24:42.666Z,967.0900
2023-05-06T08:25:44.831Z,967.0700
2023-05-06T08:26:47.085Z,967.0500
2023-05-06T08:27:49.276Z,967.0700
2023-05-06T08:28:51.532Z,967.0500
2023-05-06T08:29:53.737Z,967.0700
2023-05-06T08:30:55.884Z,967.0700
2023-05-06T08:31:58.167Z,967.0700
2023-05-06T08:33:00.215Z,967.0700
2023-05-06T08:34:02.340Z,967.0900
2023-05-06T08:35:04.534Z,967.1100
2023-05-06T08:36:06.756Z,967.1100
2023-05-06T08:38:30.761Z,967.1100
2023-05-06T08:39:32.668Z,967.1300
2023-05-06T08:40:34.844Z,967.1300
2023-05-06T08:41:37.024Z,967.1100
2023-05-06T08:42:39.231Z,967.1100
2023-05-06T08:43:41.523Z,967.1300
2023-05-06T08:44:43.579Z,967.0900
2023-05-06T08:45:45.865Z,967.0500
2023-05-06T08:46:47.908Z,967.0500
2023-05-06T08:47:50.078Z,966.9700
2023-05-06T08:48:52.241Z,967.0500
2023-05-06T08:49:54.391Z,967.0500
2023-05-06T08:50:54.440Z,967.0500
2023-05-06T08:51:56.640Z,966.9700
2023-05-06T08:52:58.807Z,966.9700
2023-05-06T08:54:01.058Z,966.9700
2023-05-06T08:55:03.104Z,966.9700
2023-05-06T08:56:05.270Z,966.9700
2023-05-06T08:57:07.548Z,966.9700
2023-05-06T08:58:09.630Z,966.9700
2023-05-06T08:59:11.840Z,966.9500
2023-05-06T09:00:14.009Z,966.9300
2023-05-06T09:01:16.254Z,966.9100
2023-05-06T09:02:18.375Z,966.9100
2023-05-06T09:03:20.760Z,966.9300
2023-05-06T09:04:22.784Z,966.8900
2023-05-06T09:05:24.961Z,966.8700
2023-05-06T09:06:27.159Z,966.8900
2023-05-06T09:07:29.346Z,966.8700
2023-05-06T09:08:31.525Z,966.8700
2023-05-06T09:09:33.863Z,966.8500
2023-05-06T09:10:35.857Z,966.8700
2023-05-06T09:11:38.041Z,966.8700
2023-05-06T09:12:40.251Z,966.8500
2023-05-06T09:13:42.423Z,966.8700
2023-05-06T09:14:42.576Z,966.9100
2023-05-06T09:15:44.681Z,966.9100
2023-05-06T09:16:46.913Z,966.8900
2023-05-06T09:17:49.093Z,966.9100
2023-05-06T09:18:51.178Z,966.8900
2023-05-06T09:19:53.370Z,966.9100
2023-05-06T09:20:55.574Z,966.8900
2023-05-06T09:21:57.743Z,966.8900
2023-05-06T09:22:59.905Z,966.8700
2023-05-06T09:24:02.054Z,966.8900
2023-05-06T09:25:04.384Z,966.9100
2023-05-06T09:26:06.411Z,966.9100
2023-05-06T09:27:10.495Z,966.8700
2023-05-06T09:28:10.749Z,966.8700
2023-05-06T09:29:12.896Z,966.8700
2023-05-06T09:30:15.127Z,966.8700
2023-05-06T09:31:17.292Z,966.8700
2023-05-06T09:32:19.453Z,966.9100
2023-05-06T09:33:21.647Z,966.9100
2023-05-06T09:34:23.826Z,966.8700
2023-05-06T09:35:26.059Z,966.8900
2023-05-06T09:36:28.223Z,966.8500
2023-05-06T09:37:30.416Z,966.8700
2023-05-06T09:38:32.619Z,966.8700
2023-05-06T09:39:34.808Z,966.8700
2023-05-06T09:40:37.265Z,966.8300
2023-05-06T09:41:39.212Z,966.8500
2023-05-06T09:42:39.268Z,966.8200
2023-05-06T09:43:41.497Z,966.8000
2023-05-06T09:44:43.723Z,966.7400
2023-05-06T09:45:46.059Z,966.7400
2023-05-06T09:46:48.233Z,966.7200
2023-05-06T09:47:50.525Z,966.7000
2023-05-06T09:48:52.774Z,966.7000
2023-05-06T09:49:55.012Z,966.7000
2023-05-06T09:50:59.385Z,966.6400
2023-05-06T09:51:59.533Z,966.6800
2023-05-06T09:52:59.643Z,966.6600
2023-05-06T09:54:01.838Z,966.6600
2023-05-06T09:55:04.070Z,966.6600
2023-05-06T09:56:06.423Z,966.6400
2023-05-06T09:57:08.482Z,966.6600
2023-05-06T09:58:10.722Z,966.6000
2023-05-06T09:59:12.783Z,966.6000
2023-05-06T10:00:14.937Z,966.6000
2023-05-06T10:01:25.038Z,966.5800
2023-05-06T10:02:19.396Z,966.5600
2023-05-06T10:03:21.585Z,966.5600
2023-05-06T10:04:25.605Z,966.5600
2023-05-06T10:05:25.912Z,966.5800
2023-05-06T10:06:28.142Z,966.5400
2023-05-06T10:07:30.238Z,966.5600
2023-05-06T10:08:32.436Z,966.5600
2023-05-06T10:09:34.629Z,966.5200
2023-05-06T10:10:36.820Z,966.5200
2023-05-06T10:11:37.305Z,966.5200
2023-05-06T10:12:39.074Z,966.5000
2023-05-06T10:13:41.270Z,966.5000
2023-05-06T10:14:43.440Z,966.4800
2023-05-06T10:15:45.691Z,966.4600
2023-05-06T10:16:48.824Z,966.4400
2023-05-06T10:17:50.129Z,966.4400
2023-05-06T10:18:52.233Z,966.4200
2023-05-06T10:19:54.436Z,966.4000
2023-05-06T10:20:56.623Z,966.4000
2023-05-06T10:21:56.707Z,966.4400
2023-05-06T10:22:58.863Z,966.4000
2023-05-06T10:24:01.074Z,966.3600
2023-05-06T10:25:03.285Z,966.3500
2023-05-06T10:26:05.454Z,966.3300
2023-05-06T10:27:07.869Z,966.3300
2023-05-06T10:28:12.747Z,966.2900
2023-05-06T10:29:12.073Z,966.2700
2023-05-06T10:30:12.097Z,966.2700
2023-05-06T10:31:14.345Z,966.2700
2023-05-06T10:32:16.510Z,966.2500
2023-05-06T10:33:18.671Z,966.2500
2023-05-06T10:34:20.879Z,966.2500
2023-05-06T10:35:23.037Z,966.2300
2023-05-06T10:36:25.219Z,966.1900
2023-05-06T10:37:27.449Z,966.1900
2023-05-06T10:38:29.650Z,966.1900
2023-05-06T10:39:31.901Z,966.1700
2023-05-06T10:40:34.131Z,966.1700
2023-05-06T10:41:36.368Z,966.1500
2023-05-06T10:42:38.786Z,966.1500
2023-05-06T10:43:40.783Z,966.1300
2023-05-06T10:44:40.824Z,966.1300
2023-05-06T10:45:43.081Z,966.1300
2023-05-06T10:46:45.258Z,966.1300
2023-05-06T10:47:47.625Z,966.1500
2023-05-06T10:48:49.634Z,966.1300
2023-05-06T10:49:51.825Z,966.1100
2023-05-06T10:50:53.968Z,966.1100
2023-05-06T10:51:56.124Z,966.1100
2023-05-06T10:52:58.305Z,966.1100
2023-05-06T10:54:00.533Z,966.0900
2023-05-06T10:55:02.659Z,966.0900
2023-05-06T10:56:04.801Z,966.0700
2023-05-06T10:57:06.908Z,966.0700
2023-05-06T10:58:09.214Z,966.0500
2023-05-06T10:59:11.268Z,966.0100
2023-05-06T11:00:13.439Z,966.0300
2023-05-06T11:01:15.628Z,966.0700
2023-05-06T11:02:17.822Z,966.0500
2023-05-06T11:03:20.095Z,966.0300
2023-05-06T11:04:22.101Z,966.0300
2023-05-06T11:05:24.267Z,966.0100
2023-05-06T11:06:26.449Z,966.0100
2023-05-06T11:07:28.602Z,966.0100
2023-05-06T11:08:30.727Z,966.0300
2023-05-06T11:09:32.883Z,966.0100
2023-05-06T11:10:35.074Z,966.0100
2023-05-06T11:11:35.087Z,965.9900
2023-05-06T11:12:37.305Z,966.0100
2023-05-06T11:13:39.696Z,965.9700
2023-05-06T11:14:41.627Z,965.9700
2023-05-06T11:15:43.822Z,965.9900
2023-05-06T11:17:26.869Z,965.9900
2023-05-06T11:18:28.992Z,965.9900
2023-05-06T11:19:31.169Z,965.9500
2023-05-06T11:20:33.350Z,965.9500
2023-05-06T11:21:33.389Z,965.9500
2023-05-06T11:22:35.579Z,965.9500
2023-05-06T11:23:37.761Z,965.9500
2023-05-06T11:24:39.991Z,965.9700
2023-05-06T11:25:42.154Z,965.9900
2023-05-06T11:26:44.359Z,965.9700
2023-05-06T11:27:46.803Z,965.9300
2023-05-06T11:28:48.789Z,965.8900
2023-05-06T11:29:50.997Z,965.8900
2023-05-06T11:30:53.230Z,965.8900
2023-05-06T11:31:55.415Z,965.8800
2023-05-06T11:32:57.631Z,965.8900
2023-05-06T11:33:59.755Z,965.8600
2023-05-06T11:35:02.069Z,965.8800
2023-05-06T11:36:04.128Z,965.8600
2023-05-06T11:37:06.264Z,965.8200
2023-05-06T11:38:08.474Z,965.8400
2023-05-06T11:39:10.551Z,965.8600
2023-05-06T11:40:12.782Z,965.8400
2023-05-06T11:41:14.927Z,965.8600
2023-05-06T11:42:17.099Z,965.8400
2023-05-06T11:43:19.245Z,965.8600
2023-05-06T11:44:21.448Z,965.8600
2023-05-06T11:45:23.741Z,965.8200
2023-05-06T11:46:25.906Z,965.8600
2023-05-06T11:47:25.912Z,965.8600
2023-05-06T11:48:28.081Z,965.8200
2023-05-06T11:49:30.365Z,965.8400
2023-05-06T11:50:34.048Z,965.8400
2023-05-06T11:51:34.852Z,965.8400
2023-05-06T11:52:37.061Z,965.8000
2023-05-06T11:53:39.246Z,965.7800
2023-05-06T11:54:41.402Z,965.8000
2023-05-06T11:55:43.737Z,965.7800
2023-05-06T11:56:45.816Z,965.7800
2023-05-06T11:57:48.042Z,965.7600
2023-05-06T11:58:48.116Z,965.7600
2023-05-06T11:59:50.427Z,965.7600
2023-05-06T12:00:52.671Z,965.7600
2023-05-06T12:01:54.745Z,965.7600
2023-05-06T12:02:57.102Z,965.7000
2023-05-06T12:03:59.414Z,965.6800
2023-05-06T12:05:01.485Z,965.6600
2023-05-06T12:06:03.779Z,965.6600
2023-05-06T12:07:05.866Z,965.6400
2023-05-06T12:08:16.283Z,965.6400
2023-05-06T12:09:10.279Z,965.6400
2023-05-06T12:10:12.866Z,965.7000
2023-05-06T12:11:14.679Z,965.6800
2023-05-06T12:12:16.895Z,965.7000
2023-05-06T12:13:19.066Z,965.7200
2023-05-06T12:14:21.203Z,965.6800